sensor_id;sensor_type;location;lat;lon;timestamp;pressure;altitude;pressure_sealevel;temperature;humidity
41222;BME280;26952;42.884;23.918;2023-03-04T00:00:36;95883.75;;;5.77;100.00
41222;BME280;26952;42.884;23.918;2023-03-04T00:03:01;95893.41;;;5.86;100.00
41222;BME280;26952;42.884;23.918;2023-03-04T00:05:27;95894.09;;;5.88;100.00
41222;BME280;26952;42.884;23.918;2023-03-04T00:07:52;95874.31;;;5.84;100.00
41222;BME280;26952;42.884;23.918;2023-03-04T00:10:18;95871.69;;;5.74;100.00
41222;BME280;26952;42.884;23.918;2023-03-04T00:12:43;95880.97;;;5.78;100.00
41222;BME280;26952;42.884;23.918;2023-03-04T00:15:09;95882.91;;;5.76;100.00
41222;BME280;26952;42.884;23.918;2023-03-04T00:17:34;95881.44;;;5.64;100.00
41222;BME280;26952;42.884;23.918;2023-03-04T00:20:00;95871.19;;;5.71;100.00
41222;BME280;26952;42.884;23.918;2023-03-04T00:22:25;95883.88;;;5.75;100.00
41222;BME280;26952;42.884;23.918;2023-03-04T00:24:50;95877.34;;;5.79;100.00
41222;BME280;26952;42.884;23.918;2023-03-04T00:27:16;95869.47;;;5.79;100.00
41222;BME280;26952;42.884;23.918;2023-03-04T00:29:41;95874.03;;;5.77;100.00
41222;BME280;26952;42.884;23.918;2023-03-04T00:32:07;95865.91;;;5.80;100.00
41222;BME280;26952;42.884;23.918;2023-03-04T00:34:32;95856.34;;;5.79;100.00
41222;BME280;26952;42.884;23.918;2023-03-04T00:36:57;95852.78;;;5.80;100.00
41222;BME280;26952;42.884;23.918;2023-03-04T00:39:28;95861.59;;;5.79;100.00
41222;BME280;26952;42.884;23.918;2023-03-04T00:41:53;95846.44;;;5.73;100.00
41222;BME280;26952;42.884;23.918;2023-03-04T00:44:19;95860.38;;;5.83;100.00
41222;BME280;26952;42.884;23.918;2023-03-04T00:46:44;95861.34;;;5.72;100.00
41222;BME280;26952;42.884;23.918;2023-03-04T00:49:10;95852.72;;;5.43;100.00
41222;BME280;26952;42.884;23.918;2023-03-04T00:51:35;95858.09;;;5.42;100.00
41222;BME280;26952;42.884;23.918;2023-03-04T00:54:01;95858.94;;;5.42;100.00
41222;BME280;26952;42.884;23.918;2023-03-04T00:56:27;95841.00;;;5.38;100.00
41222;BME280;26952;42.884;23.918;2023-03-04T00:58:52;95856.88;;;5.46;100.00
41222;BME280;26952;42.884;23.918;2023-03-04T01:01:17;95854.38;;;5.54;100.00
41222;BME280;26952;42.884;23.918;2023-03-04T01:03:43;95849.53;;;5.40;100.00
41222;BME280;26952;42.884;23.918;2023-03-04T01:06:08;95850.38;;;5.40;100.00
41222;BME280;26952;42.884;23.918;2023-03-04T01:08:34;95848.03;;;5.47;100.00
41222;BME280;26952;42.884;23.918;2023-03-04T01:10:59;95844.41;;;5.57;100.00
41222;BME280;26952;42.884;23.918;2023-03-04T01:13:25;95849.22;;;5.62;100.00
41222;BME280;26952;42.884;23.918;2023-03-04T01:15:50;95858.88;;;5.71;100.00
41222;BME280;26952;42.884;23.918;2023-03-04T01:18:15;95836.09;;;5.62;100.00
41222;BME280;26952;42.884;23.918;2023-03-04T01:20:41;95844.78;;;5.62;100.00
41222;BME280;26952;42.884;23.918;2023-03-04T01:23:06;95816.38;;;5.48;100.00
41222;BME280;26952;42.884;23.918;2023-03-04T01:25:31;95835.66;;;5.66;100.00
41222;BME280;26952;42.884;23.918;2023-03-04T01:27:57;95842.81;;;5.74;100.00
41222;BME280;26952;42.884;23.918;2023-03-04T01:30:22;95817.88;;;5.60;100.00
41222;BME280;26952;42.884;23.918;2023-03-04T01:32:48;95834.38;;;5.80;100.00
41222;BME280;26952;42.884;23.918;2023-03-04T01:35:13;95839.25;;;5.75;100.00
41222;BME280;26952;42.884;23.918;2023-03-04T01:37:38;95837.16;;;5.69;100.00
41222;BME280;26952;42.884;23.918;2023-03-04T01:40:04;95834.97;;;5.64;100.00
41222;BME280;26952;42.884;23.918;2023-03-04T01:42:33;95840.38;;;5.63;100.00
41222;BME280;26952;42.884;23.918;2023-03-04T01:44:59;95834.84;;;5.66;100.00
41222;BME280;26952;42.884;23.918;2023-03-04T01:47:28;95824.31;;;5.66;100.00
41222;BME280;26952;42.884;23.918;2023-03-04T01:49:56;95828.59;;;5.77;100.00
41222;BME280;26952;42.884;23.918;2023-03-04T01:52:22;95824.16;;;5.77;100.00
41222;BME280;26952;42.884;23.918;2023-03-04T01:54:48;95815.16;;;5.80;100.00
41222;BME280;26952;42.884;23.918;2023-03-04T01:57:22;95815.09;;;5.62;100.00
41222;BME280;26952;42.884;23.918;2023-03-04T02:00:16;95827.81;;;5.57;100.00
41222;BME280;26952;42.884;23.918;2023-03-04T02:02:42;95816.88;;;5.61;100.00
41222;BME280;26952;42.884;23.918;2023-03-04T02:05:08;95824.09;;;5.50;100.00
41222;BME280;26952;42.884;23.918;2023-03-04T02:07:34;95818.56;;;5.53;100.00
41222;BME280;26952;42.884;23.918;2023-03-04T02:09:59;95811.38;;;5.55;100.00
41222;BME280;26952;42.884;23.918;2023-03-04T02:12:25;95815.25;;;5.60;100.00
41222;BME280;26952;42.884;23.918;2023-03-04T02:14:50;95815.66;;;5.56;100.00
41222;BME280;26952;42.884;23.918;2023-03-04T02:17:15;95819.13;;;5.56;100.00
41222;BME280;26952;42.884;23.918;2023-03-04T02:19:50;95809.75;;;5.54;100.00
41222;BME280;26952;42.884;23.918;2023-03-04T02:22:18;95820.78;;;5.57;100.00
41222;BME280;26952;42.884;23.918;2023-03-04T02:24:51;95824.31;;;5.66;100.00
41222;BME280;26952;42.884;23.918;2023-03-04T02:27:18;95804.59;;;5.62;100.00
41222;BME280;26952;42.884;23.918;2023-03-04T02:29:43;95799.75;;;5.67;100.00
41222;BME280;26952;42.884;23.918;2023-03-04T02:32:11;95803.19;;;5.67;100.00
41222;BME280;26952;42.884;23.918;2023-03-04T02:34:44;95814.97;;;5.63;100.00
41222;BME280;26952;42.884;23.918;2023-03-04T02:37:10;95803.09;;;5.50;100.00
41222;BME280;26952;42.884;23.918;2023-03-04T02:39:41;95802.72;;;5.45;100.00
41222;BME280;26952;42.884;23.918;2023-03-04T02:42:07;95812.66;;;5.51;100.00
41222;BME280;26952;42.884;23.918;2023-03-04T02:44:38;95794.44;;;5.40;100.00
41222;BME280;26952;42.884;23.918;2023-03-04T02:47:06;95793.78;;;5.28;100.00
41222;BME280;26952;42.884;23.918;2023-03-04T02:49:33;95798.22;;;5.28;100.00
41222;BME280;26952;42.884;23.918;2023-03-04T02:52:07;95790.06;;;5.21;100.00
41222;BME280;26952;42.884;23.918;2023-03-04T02:54:33;95799.72;;;5.21;100.00
41222;BME280;26952;42.884;23.918;2023-03-04T02:57:01;95772.28;;;5.06;100.00
41222;BME280;26952;42.884;23.918;2023-03-04T02:59:28;95787.75;;;5.09;100.00
41222;BME280;26952;42.884;23.918;2023-03-04T03:01:53;95812.16;;;5.19;100.00
41222;BME280;26952;42.884;23.918;2023-03-04T03:04:20;95814.53;;;5.22;100.00
41222;BME280;26952;42.884;23.918;2023-03-04T03:06:46;95799.03;;;5.19;100.00
41222;BME280;26952;42.884;23.918;2023-03-04T03:09:12;95790.25;;;5.10;100.00
41222;BME280;26952;42.884;23.918;2023-03-04T03:11:37;95780.56;;;5.11;100.00
41222;BME280;26952;42.884;23.918;2023-03-04T03:14:03;95796.00;;;5.23;100.00
41222;BME280;26952;42.884;23.918;2023-03-04T03:16:29;95807.44;;;5.32;100.00
41222;BME280;26952;42.884;23.918;2023-03-04T03:18:54;95811.19;;;5.29;100.00
41222;BME280;26952;42.884;23.918;2023-03-04T03:21:20;95809.09;;;5.33;100.00
41222;BME280;26952;42.884;23.918;2023-03-04T03:23:45;95808.81;;;5.36;100.00
41222;BME280;26952;42.884;23.918;2023-03-04T03:26:11;95809.78;;;5.35;100.00
41222;BME280;26952;42.884;23.918;2023-03-04T03:28:36;95813.25;;;5.26;100.00
41222;BME280;26952;42.884;23.918;2023-03-04T03:31:01;95791.88;;;5.21;100.00
41222;BME280;26952;42.884;23.918;2023-03-04T03:33:27;95812.78;;;5.40;100.00
41222;BME280;26952;42.884;23.918;2023-03-04T03:35:52;95802.03;;;5.33;100.00
41222;BME280;26952;42.884;23.918;2023-03-04T03:38:18;95805.91;;;5.39;100.00
41222;BME280;26952;42.884;23.918;2023-03-04T03:40:43;95807.84;;;5.37;100.00
41222;BME280;26952;42.884;23.918;2023-03-04T03:43:10;95781.38;;;5.21;100.00
41222;BME280;26952;42.884;23.918;2023-03-04T03:45:35;95800.97;;;5.26;100.00
41222;BME280;26952;42.884;23.918;2023-03-04T03:48:01;95810.66;;;5.16;100.00
41222;BME280;26952;42.884;23.918;2023-03-04T03:50:26;95801.28;;;5.14;100.00
41222;BME280;26952;42.884;23.918;2023-03-04T03:52:53;95800.03;;;5.18;100.00
41222;BME280;26952;42.884;23.918;2023-03-04T03:55:19;95778.22;;;5.08;100.00
41222;BME280;26952;42.884;23.918;2023-03-04T03:57:44;95792.72;;;5.12;100.00
41222;BME280;26952;42.884;23.918;2023-03-04T04:00:10;95792.72;;;5.12;100.00
41222;BME280;26952;42.884;23.918;2023-03-04T04:02:35;95769.69;;;4.96;100.00
41222;BME280;26952;42.884;23.918;2023-03-04T04:05:01;95793.78;;;5.19;100.00
41222;BME280;26952;42.884;23.918;2023-03-04T04:07:26;95769.41;;;5.09;100.00
41222;BME280;26952;42.884;23.918;2023-03-04T04:09:52;95797.50;;;5.26;100.00
41222;BME280;26952;42.884;23.918;2023-03-04T04:12:18;95778.91;;;5.10;100.00
41222;BME280;26952;42.884;23.918;2023-03-04T04:14:44;95799.03;;;5.28;100.00
41222;BME280;26952;42.884;23.918;2023-03-04T04:17:09;95801.78;;;5.27;100.00
41222;BME280;26952;42.884;23.918;2023-03-04T04:19:35;95796.97;;;5.13;100.00
41222;BME280;26952;42.884;23.918;2023-03-04T04:22:01;95791.34;;;5.08;100.00
41222;BME280;26952;42.884;23.918;2023-03-04T04:24:27;95805.41;;;5.16;100.00
41222;BME280;26952;42.884;23.918;2023-03-04T04:26:52;95806.91;;;5.19;100.00
41222;BME280;26952;42.884;23.918;2023-03-04T04:29:18;95775.88;;;5.05;100.00
41222;BME280;26952;42.884;23.918;2023-03-04T04:31:43;95807.88;;;5.18;100.00
41222;BME280;26952;42.884;23.918;2023-03-04T04:34:09;95802.91;;;5.24;100.00
41222;BME280;26952;42.884;23.918;2023-03-04T04:36:34;95811.47;;;5.26;100.00
41222;BME280;26952;42.884;23.918;2023-03-04T04:39:00;95810.34;;;5.29;100.00
41222;BME280;26952;42.884;23.918;2023-03-04T04:41:30;95810.91;;;5.23;100.00
41222;BME280;26952;42.884;23.918;2023-03-04T04:43:56;95802.66;;;5.08;100.00
41222;BME280;26952;42.884;23.918;2023-03-04T04:46:22;95809.53;;;5.19;100.00
41222;BME280;26952;42.884;23.918;2023-03-04T04:48:48;95796.56;;;5.17;100.00
41222;BME280;26952;42.884;23.918;2023-03-04T04:51:14;95815.19;;;5.24;100.00
41222;BME280;26952;42.884;23.918;2023-03-04T04:53:39;95818.50;;;5.26;100.00
41222;BME280;26952;42.884;23.918;2023-03-04T04:56:16;95812.97;;;5.29;100.00
41222;BME280;26952;42.884;23.918;2023-03-04T04:58:42;95815.88;;;5.26;100.00
41222;BME280;26952;42.884;23.918;2023-03-04T05:01:08;95814.25;;;5.25;100.00
41222;BME280;26952;42.884;23.918;2023-03-04T05:03:35;95809.94;;;5.24;100.00
41222;BME280;26952;42.884;23.918;2023-03-04T05:06:02;95823.47;;;5.29;100.00
41222;BME280;26952;42.884;23.918;2023-03-04T05:08:28;95821.56;;;5.21;100.00
41222;BME280;26952;42.884;23.918;2023-03-04T05:10:54;95833.16;;;5.28;100.00
41222;BME280;26952;42.884;23.918;2023-03-04T05:13:19;95828.72;;;5.29;100.00
41222;BME280;26952;42.884;23.918;2023-03-04T05:15:45;95830.94;;;5.24;100.00
41222;BME280;26952;42.884;23.918;2023-03-04T05:18:11;95812.44;;;5.16;100.00
41222;BME280;26952;42.884;23.918;2023-03-04T05:20:36;95846.91;;;5.40;100.00
41222;BME280;26952;42.884;23.918;2023-03-04T05:23:02;95828.53;;;5.40;100.00
41222;BME280;26952;42.884;23.918;2023-03-04T05:25:27;95817.78;;;5.43;100.00
41222;BME280;26952;42.884;23.918;2023-03-04T05:27:52;95840.25;;;5.55;100.00
41222;BME280;26952;42.884;23.918;2023-03-04T05:30:18;95825.78;;;5.51;100.00
41222;BME280;26952;42.884;23.918;2023-03-04T05:32:43;95845.63;;;5.63;100.00
41222;BME280;26952;42.884;23.918;2023-03-04T05:35:09;95842.41;;;5.69;100.00
41222;BME280;26952;42.884;23.918;2023-03-04T05:37:34;95831.66;;;5.72;100.00
41222;BME280;26952;42.884;23.918;2023-03-04T05:40:00;95824.03;;;5.69;100.00
41222;BME280;26952;42.884;23.918;2023-03-04T05:42:25;95833.16;;;5.75;100.00
41222;BME280;26952;42.884;23.918;2023-03-04T05:44:50;95824.56;;;5.82;100.00
41222;BME280;26952;42.884;23.918;2023-03-04T05:47:16;95840.97;;;5.94;100.00
41222;BME280;26952;42.884;23.918;2023-03-04T05:49:41;95832.00;;;5.96;100.00
41222;BME280;26952;42.884;23.918;2023-03-04T05:52:07;95839.88;;;5.96;100.00
41222;BME280;26952;42.884;23.918;2023-03-04T05:54:32;95846.28;;;6.11;100.00
41222;BME280;26952;42.884;23.918;2023-03-04T05:56:57;95831.50;;;6.10;100.00
41222;BME280;26952;42.884;23.918;2023-03-04T05:59:23;95834.44;;;6.07;100.00
41222;BME280;26952;42.884;23.918;2023-03-04T06:01:49;95835.72;;;5.94;100.00
41222;BME280;26952;42.884;23.918;2023-03-04T06:04:14;95851.75;;;6.00;100.00
41222;BME280;26952;42.884;23.918;2023-03-04T06:06:40;95848.25;;;6.09;100.00
41222;BME280;26952;42.884;23.918;2023-03-04T06:09:05;95850.59;;;6.12;100.00
41222;BME280;26952;42.884;23.918;2023-03-04T06:11:30;95852.94;;;6.15;100.00
41222;BME280;26952;42.884;23.918;2023-03-04T06:13:56;95855.09;;;6.20;100.00
41222;BME280;26952;42.884;23.918;2023-03-04T06:16:21;95855.94;;;6.20;100.00
41222;BME280;26952;42.884;23.918;2023-03-04T06:18:46;95855.59;;;6.33;100.00
41222;BME280;26952;42.884;23.918;2023-03-04T06:21:12;95864.72;;;6.38;100.00
41222;BME280;26952;42.884;23.918;2023-03-04T06:23:37;95869.75;;;6.49;100.00
41222;BME280;26952;42.884;23.918;2023-03-04T06:26:03;95864.13;;;6.44;100.00
41222;BME280;26952;42.884;23.918;2023-03-04T06:28:29;95855.84;;;6.39;100.00
41222;BME280;26952;42.884;23.918;2023-03-04T06:30:56;95871.00;;;6.45;100.00
41222;BME280;26952;42.884;23.918;2023-03-04T06:33:22;95869.75;;;6.49;100.00
41222;BME280;26952;42.884;23.918;2023-03-04T06:35:47;95871.78;;;6.55;100.00
41222;BME280;26952;42.884;23.918;2023-03-04T06:38:13;95860.16;;;6.58;100.00
41222;BME280;26952;42.884;23.918;2023-03-04T06:40:38;95847.03;;;6.58;100.00
41222;BME280;26952;42.884;23.918;2023-03-04T06:43:03;95867.00;;;6.68;100.00
41222;BME280;26952;42.884;23.918;2023-03-04T06:45:29;95867.44;;;6.46;100.00
41222;BME280;26952;42.884;23.918;2023-03-04T06:47:54;95858.09;;;6.52;100.00
41222;BME280;26952;42.884;23.918;2023-03-04T06:50:20;95859.56;;;6.64;100.00
41222;BME280;26952;42.884;23.918;2023-03-04T06:52:45;95864.63;;;6.92;100.00
41222;BME280;26952;42.884;23.918;2023-03-04T06:55:11;95858.69;;;7.26;100.00
41222;BME280;26952;42.884;23.918;2023-03-04T06:57:37;95868.66;;;7.65;100.00
41222;BME280;26952;42.884;23.918;2023-03-04T07:00:04;95862.13;;;7.95;100.00
41222;BME280;26952;42.884;23.918;2023-03-04T07:02:31;95867.97;;;8.40;100.00
41222;BME280;26952;42.884;23.918;2023-03-04T07:04:57;95857.69;;;8.71;100.00
41222;BME280;26952;42.884;23.918;2023-03-04T07:07:22;95863.81;;;8.87;100.00
41222;BME280;26952;42.884;23.918;2023-03-04T07:09:49;95862.03;;;8.38;100.00
41222;BME280;26952;42.884;23.918;2023-03-04T07:12:15;95857.44;;;8.14;100.00
41222;BME280;26952;42.884;23.918;2023-03-04T07:14:40;95859.00;;;7.99;100.00
41222;BME280;26952;42.884;23.918;2023-03-04T07:17:06;95875.97;;;7.97;100.00
41222;BME280;26952;42.884;23.918;2023-03-04T07:19:31;95872.16;;;7.23;100.00
41222;BME280;26952;42.884;23.918;2023-03-04T07:21:56;95869.34;;;7.24;100.00
41222;BME280;26952;42.884;23.918;2023-03-04T07:24:22;95875.13;;;7.10;100.00
41222;BME280;26952;42.884;23.918;2023-03-04T07:26:47;95876.50;;;6.96;100.00
41222;BME280;26952;42.884;23.918;2023-03-04T07:29:12;95873.47;;;7.27;100.00
41222;BME280;26952;42.884;23.918;2023-03-04T07:31:38;95868.34;;;7.43;100.00
41222;BME280;26952;42.884;23.918;2023-03-04T07:34:05;95874.97;;;7.47;100.00
41222;BME280;26952;42.884;23.918;2023-03-04T07:36:32;95860.13;;;7.46;100.00
41222;BME280;26952;42.884;23.918;2023-03-04T07:38:58;95861.41;;;7.59;100.00
41222;BME280;26952;42.884;23.918;2023-03-04T07:41:25;95868.50;;;7.84;100.00
41222;BME280;26952;42.884;23.918;2023-03-04T07:43:51;95870.97;;;7.86;100.00
41222;BME280;26952;42.884;23.918;2023-03-04T07:46:17;95867.19;;;7.88;100.00
41222;BME280;26952;42.884;23.918;2023-03-04T07:48:43;95871.97;;;7.93;100.00
41222;BME280;26952;42.884;23.918;2023-03-04T07:51:14;95870.84;;;7.95;100.00
41222;BME280;26952;42.884;23.918;2023-03-04T07:53:41;95860.66;;;8.26;100.00
41222;BME280;26952;42.884;23.918;2023-03-04T07:56:11;95846.56;;;8.51;100.00
41222;BME280;26952;42.884;23.918;2023-03-04T07:58:36;95861.19;;;8.95;100.00
41222;BME280;26952;42.884;23.918;2023-03-04T08:01:11;95856.91;;;8.86;100.00
41222;BME280;26952;42.884;23.918;2023-03-04T08:03:36;95857.88;;;8.93;100.00
41222;BME280;26952;42.884;23.918;2023-03-04T08:06:09;95862.56;;;9.07;100.00
41222;BME280;26952;42.884;23.918;2023-03-04T08:08:35;95857.25;;;8.99;100.00
41222;BME280;26952;42.884;23.918;2023-03-04T08:11:06;95861.88;;;8.97;100.00
41222;BME280;26952;42.884;23.918;2023-03-04T08:13:31;95866.34;;;9.21;100.00
41222;BME280;26952;42.884;23.918;2023-03-04T08:15:56;95863.75;;;9.45;100.00
41222;BME280;26952;42.884;23.918;2023-03-04T08:18:22;95868.19;;;9.68;100.00
41222;BME280;26952;42.884;23.918;2023-03-04T08:20:48;95850.34;;;9.70;100.00
41222;BME280;26952;42.884;23.918;2023-03-04T08:23:13;95861.22;;;9.92;100.00
41222;BME280;26952;42.884;23.918;2023-03-04T08:25:39;95865.16;;;9.88;96.09
41222;BME280;26952;42.884;23.918;2023-03-04T08:28:06;95849.53;;;9.62;95.54
41222;BME280;26952;42.884;23.918;2023-03-04T08:30:32;95848.66;;;9.77;97.54
41222;BME280;26952;42.884;23.918;2023-03-04T08:32:57;95858.44;;;9.77;99.14
41222;BME280;26952;42.884;23.918;2023-03-04T08:35:22;95846.03;;;9.69;99.18
41222;BME280;26952;42.884;23.918;2023-03-04T08:37:48;95857.28;;;9.63;98.54
41222;BME280;26952;42.884;23.918;2023-03-04T08:40:14;95855.97;;;9.59;100.00
41222;BME280;26952;42.884;23.918;2023-03-04T08:42:40;95849.38;;;9.47;100.00
41222;BME280;26952;42.884;23.918;2023-03-04T08:45:06;95839.81;;;9.38;100.00
41222;BME280;26952;42.884;23.918;2023-03-04T08:47:32;95850.00;;;9.65;100.00
41222;BME280;26952;42.884;23.918;2023-03-04T08:49:58;95847.03;;;9.76;100.00
41222;BME280;26952;42.884;23.918;2023-03-04T08:52:24;95838.72;;;9.88;100.00
41222;BME280;26952;42.884;23.918;2023-03-04T08:54:49;95847.97;;;10.16;100.00
41222;BME280;26952;42.884;23.918;2023-03-04T08:57:15;95824.50;;;10.05;100.00
41222;BME280;26952;42.884;23.918;2023-03-04T08:59:40;95831.25;;;10.15;99.00
41222;BME280;26952;42.884;23.918;2023-03-04T09:02:06;95833.00;;;10.39;97.33
41222;BME280;26952;42.884;23.918;2023-03-04T09:04:31;95826.50;;;10.49;92.47
41222;BME280;26952;42.884;23.918;2023-03-04T09:06:57;95831.25;;;10.54;91.20
41222;BME280;26952;42.884;23.918;2023-03-04T09:09:22;95804.78;;;10.54;93.69
41222;BME280;26952;42.884;23.918;2023-03-04T09:11:47;95822.06;;;10.42;91.60
41222;BME280;26952;42.884;23.918;2023-03-04T09:14:13;95830.31;;;10.47;93.78
41222;BME280;26952;42.884;23.918;2023-03-04T09:16:38;95810.59;;;10.80;97.22
41222;BME280;26952;42.884;23.918;2023-03-04T09:19:04;95810.75;;;11.09;94.87
41222;BME280;26952;42.884;23.918;2023-03-04T09:21:29;95820.66;;;11.15;87.54
41222;BME280;26952;42.884;23.918;2023-03-04T09:23:54;95819.91;;;10.76;87.71
41222;BME280;26952;42.884;23.918;2023-03-04T09:26:25;95820.34;;;10.57;88.76
41222;BME280;26952;42.884;23.918;2023-03-04T09:28:53;95808.34;;;9.92;85.56
41222;BME280;26952;42.884;23.918;2023-03-04T09:31:19;95812.03;;;9.58;90.75
41222;BME280;26952;42.884;23.918;2023-03-04T09:33:45;95811.38;;;9.64;90.16
41222;BME280;26952;42.884;23.918;2023-03-04T09:36:12;95813.31;;;9.78;90.15
41222;BME280;26952;42.884;23.918;2023-03-04T09:38:38;95815.56;;;9.98;91.82
41222;BME280;26952;42.884;23.918;2023-03-04T09:41:24;95816.56;;;10.13;92.44
41222;BME280;26952;42.884;23.918;2023-03-04T09:43:52;95817.53;;;10.04;89.12
41222;BME280;26952;42.884;23.918;2023-03-04T09:46:39;95798.78;;;9.74;94.37
41222;BME280;26952;42.884;23.918;2023-03-04T09:49:05;95799.41;;;9.84;95.72
41222;BME280;26952;42.884;23.918;2023-03-04T09:54:14;95797.88;;;10.14;90.99
41222;BME280;26952;42.884;23.918;2023-03-04T09:56:42;95809.22;;;10.31;85.04
41222;BME280;26952;42.884;23.918;2023-03-04T09:59:16;95800.28;;;10.32;87.29
41222;BME280;26952;42.884;23.918;2023-03-04T10:06:55;95786.50;;;9.98;84.69
41222;BME280;26952;42.884;23.918;2023-03-04T10:09:28;95792.38;;;10.24;82.78
41222;BME280;26952;42.884;23.918;2023-03-04T10:12:05;95774.47;;;10.64;84.60
41222;BME280;26952;42.884;23.918;2023-03-04T10:14:36;95785.56;;;10.90;79.06
41222;BME280;26952;42.884;23.918;2023-03-04T10:17:07;95762.66;;;10.75;78.72
41222;BME280;26952;42.884;23.918;2023-03-04T10:22:15;95740.72;;;10.89;77.56
41222;BME280;26952;42.884;23.918;2023-03-04T10:24:41;95764.06;;;11.08;73.64
41222;BME280;26952;42.884;23.918;2023-03-04T10:27:09;95749.19;;;11.07;76.44
41222;BME280;26952;42.884;23.918;2023-03-04T10:29:36;95737.31;;;10.80;74.90
41222;BME280;26952;42.884;23.918;2023-03-04T10:32:01;95739.41;;;10.85;75.80
41222;BME280;26952;42.884;23.918;2023-03-04T10:34:27;95731.94;;;10.88;79.53
41222;BME280;26952;42.884;23.918;2023-03-04T10:37:10;95738.88;;;10.14;79.57
41222;BME280;26952;42.884;23.918;2023-03-04T10:42:04;95728.72;;;10.78;82.67
41222;BME280;26952;42.884;23.918;2023-03-04T10:44:32;95732.44;;;11.29;83.18
41222;BME280;26952;42.884;23.918;2023-03-04T10:46:59;95734.09;;;11.59;77.21
41222;BME280;26952;42.884;23.918;2023-03-04T10:49:26;95717.53;;;11.94;78.88
41222;BME280;26952;42.884;23.918;2023-03-04T10:54:56;95718.59;;;11.85;71.97
41222;BME280;26952;42.884;23.918;2023-03-04T10:59:58;95704.19;;;11.73;72.37
41222;BME280;26952;42.884;23.918;2023-03-04T11:02:30;95701.59;;;11.94;76.56
41222;BME280;26952;42.884;23.918;2023-03-04T11:07:39;95677.94;;;12.28;76.99
41222;BME280;26952;42.884;23.918;2023-03-04T11:10:54;95686.88;;;12.63;73.78
41222;BME280;26952;42.884;23.918;2023-03-04T11:13:13;95670.56;;;12.66;69.56
41222;BME280;26952;42.884;23.918;2023-03-04T11:16:03;95676.84;;;13.01;68.21
41222;BME280;26952;42.884;23.918;2023-03-04T11:18:49;95670.25;;;13.18;67.53
41222;BME280;26952;42.884;23.918;2023-03-04T11:21:19;95667.81;;;13.23;64.77
41222;BME280;26952;42.884;23.918;2023-03-04T11:23:52;95651.50;;;13.26;67.48
41222;BME280;26952;42.884;23.918;2023-03-04T11:26:39;95647.28;;;13.10;62.48
41222;BME280;26952;42.884;23.918;2023-03-04T11:31:55;95641.53;;;13.07;65.50
41222;BME280;26952;42.884;23.918;2023-03-04T11:37:02;95637.91;;;13.14;69.07
41222;BME280;26952;42.884;23.918;2023-03-04T11:39:36;95632.66;;;13.21;67.12
41222;BME280;26952;42.884;23.918;2023-03-04T11:42:16;95631.88;;;13.27;64.88
41222;BME280;26952;42.884;23.918;2023-03-04T11:44:45;95627.47;;;13.13;63.82
41222;BME280;26952;42.884;23.918;2023-03-04T11:50:06;95622.03;;;13.21;67.08
41222;BME280;26952;42.884;23.918;2023-03-04T11:53:01;95599.19;;;13.33;67.97
41222;BME280;26952;42.884;23.918;2023-03-04T12:01:30;95608.13;;;14.00;61.03
41222;BME280;26952;42.884;23.918;2023-03-04T12:14:47;95584.38;;;13.99;58.89
41222;BME280;26952;42.884;23.918;2023-03-04T12:22:44;95586.75;;;12.85;62.10
41222;BME280;26952;42.884;23.918;2023-03-04T12:25:42;95579.91;;;12.97;66.74
41222;BME280;26952;42.884;23.918;2023-03-04T12:28:50;95582.09;;;12.87;62.37
41222;BME280;26952;42.884;23.918;2023-03-04T12:31:29;95563.25;;;12.82;64.65
41222;BME280;26952;42.884;23.918;2023-03-04T12:44:46;95529.69;;;14.03;62.53
41222;BME280;26952;42.884;23.918;2023-03-04T12:47:29;95556.81;;;14.26;58.74
41222;BME280;26952;42.884;23.918;2023-03-04T12:53:30;95528.75;;;14.49;55.28
41222;BME280;26952;42.884;23.918;2023-03-04T12:55:58;95529.50;;;14.04;58.25
41222;BME280;26952;42.884;23.918;2023-03-04T12:58:26;95512.13;;;13.48;57.63
41222;BME280;26952;42.884;23.918;2023-03-04T13:01:14;95533.00;;;13.51;60.44
41222;BME280;26952;42.884;23.918;2023-03-04T13:04:08;95530.97;;;13.12;62.77
41222;BME280;26952;42.884;23.918;2023-03-04T13:06:45;95527.47;;;13.05;59.43
41222;BME280;26952;42.884;23.918;2023-03-04T13:12:22;95521.72;;;13.02;61.37
41222;BME280;26952;42.884;23.918;2023-03-04T13:22:56;95507.19;;;12.70;60.48
41222;BME280;26952;42.884;23.918;2023-03-04T13:25:29;95504.50;;;12.98;63.58
41222;BME280;26952;42.884;23.918;2023-03-04T13:56:32;95454.97;;;13.91;55.95
41222;BME280;26952;42.884;23.918;2023-03-04T14:01:31;95469.06;;;13.85;54.16
41222;BME280;26952;42.884;23.918;2023-03-04T14:03:58;95471.34;;;13.88;53.64
41222;BME280;26952;42.884;23.918;2023-03-04T14:06:26;95457.81;;;13.89;54.74
41222;BME280;26952;42.884;23.918;2023-03-04T14:08:53;95460.28;;;13.91;56.28
41222;BME280;26952;42.884;23.918;2023-03-04T14:11:26;95463.78;;;13.98;55.72
41222;BME280;26952;42.884;23.918;2023-03-04T14:13:54;95460.69;;;13.88;56.10
41222;BME280;26952;42.884;23.918;2023-03-04T14:16:24;95461.72;;;13.80;54.55
41222;BME280;26952;42.884;23.918;2023-03-04T14:19:00;95454.56;;;13.81;54.69
41222;BME280;26952;42.884;23.918;2023-03-04T14:21:27;95460.22;;;13.65;53.38
41222;BME280;26952;42.884;23.918;2023-03-04T14:24:21;95457.94;;;13.49;52.09
41222;BME280;26952;42.884;23.918;2023-03-04T14:26:46;95459.75;;;13.35;52.48
41222;BME280;26952;42.884;23.918;2023-03-04T14:31:44;95444.00;;;13.34;56.90
41222;BME280;26952;42.884;23.918;2023-03-04T14:36:47;95440.31;;;13.35;56.76
41222;BME280;26952;42.884;23.918;2023-03-04T14:39:15;95438.22;;;13.24;56.88
41222;BME280;26952;42.884;23.918;2023-03-04T14:41:43;95438.00;;;13.19;55.41
41222;BME280;26952;42.884;23.918;2023-03-04T14:46:59;95446.22;;;13.30;62.49
41222;BME280;26952;42.884;23.918;2023-03-04T14:49:26;95446.84;;;13.32;61.79